• Join FlightAware (Why Join?)
  • Login
  • US Flag 
06:39AM EDT


 

Airport Tracker/Info


-or-


 

Live Flight TrackerFlight Track Log ✈ ASQ5740 ✈ 25-Sep-2013 ✈ KGSP - KIAD

Flight Track Log - Related Links

Times and Time Zones

All times are in EDT time to prevent confusion due to time zone crossing. See the ASQ5740 flight status page for this flight to view local times or setup timezone preferences in your user account.

Time Position Orientation Groundspeed Altitude Reporting Facility
EDT Latitude Longitude Course Direction KTS MPH feet Rate Location/Type
03:53PM 35.0228 -82.1011 41° Northeast 252 290 6,800  Level Atlanta Center
03:54PM 35.0800 -82.0286 46° Northeast 279 321 9,200 2,100 Climbing Atlanta Center
03:55PM 35.1436 -81.9533 44° Northeast 304 350 11,100 1,500 Climbing Atlanta Center
03:56PM 35.4033 -81.6608 68° East  Level Estimated
03:56PM 35.2392 -81.9408 North 318 366 12,300  Level Atlanta Center
03:57PM 35.3278 -81.8775 30° Northeast 331 381 13,900 1,500 Climbing Atlanta Center
03:58PM 35.3756 -81.7514 65° Northeast 358 412 15,400 1,440 Climbing Atlanta Center
03:59PM 35.4233 -81.6253 65° Northeast 371 427 16,800 1,260 Climbing Atlanta Center
04:00PM 35.4708 -81.4989 65° Northeast 402 463 18,000 1,200 Climbing Atlanta Center
04:01PM 35.5203 -81.3697 65° Northeast 413 475 19,300 900 Climbing Atlanta Center
04:02PM 35.5694 -81.2381 65° Northeast 413 475 19,900 900 Climbing Atlanta Center
04:03PM 35.6225 -81.1008 65° Northeast 433 498 21,200 1,140 Climbing Atlanta Center
04:04PM 35.6756 -80.9658 64° Northeast 433 498 22,200 840 Climbing Atlanta Center
04:05PM 35.7264 -80.8283 65° Northeast 433 498 22,900 660 Climbing Atlanta Center
04:06PM 35.7811 -80.6881 64° Northeast 433 498 23,600 660 Climbing Atlanta Center
04:07PM 35.8333 -80.5425 66° East 447 514 24,300 660 Climbing Atlanta Center
04:09PM 35.9419 -80.2564 65° Northeast 463 533 25,700 600 Climbing Washington Center
04:10PM 35.9933 -80.1131 66° East 463 533 26,300 480 Climbing Washington Center
04:11PM 36.0508 -79.9722 63° Northeast 456 525 26,700 420 Climbing Washington Center
04:12PM 36.1244 -79.8428 55° Northeast 451 519 27,200 540 Climbing Washington Center
04:13PM 36.2000 -79.7053 56° Northeast 476 548 27,800 540 Climbing Washington Center
04:14PM 36.2822 -79.5600 55° Northeast 476 548 28,300 420 Climbing Washington Center
04:15PM 36.3422 -79.4522 55° Northeast 476 548 28,700 300 Climbing Washington Center
04:16PM 36.4286 -79.2914 56° Northeast 476 548 29,000 120 Climbing Washington Center
04:17PM 36.4989 -79.1706 54° Northeast 476 548 29,000 -480 Level Washington Center
04:18PM 36.5781 -79.0372 53° Northeast 476 548 28,100 -1,380 Descending Washington Center
04:19PM 36.6528 -78.9006 56° Northeast 476 548 26,400 -1,620 Descending Washington Center
04:20PM 36.7342 -78.7486 56° Northeast 476 548 25,000 -720 Descending Washington Center
04:21PM 36.8206 -78.6328 47° Northeast 469 540 25,000 -60 Level Washington Center
04:22PM 36.9192 -78.5250 41° Northeast 463 533 24,900  Descending Washington Center
04:23PM 37.0258 -78.4353 34° Northeast 457 526 25,000  Climbing Washington Center
04:24PM 37.1236 -78.3531 34° Northeast 464 534 25,000 -120 Level Washington Center
04:25PM 37.2319 -78.2631 33° Northeast 464 534 24,800 -660 Descending Washington Center
04:26PM 37.3425 -78.1703 34° Northeast 469 540 23,800 -1,020 Descending Washington Center
04:27PM 37.4508 -78.0744 35° Northeast 474 545 22,800 -1,020 Descending Washington Center
04:28PM 37.5614 -77.9836 33° Northeast 474 545 21,800 -1,020 Descending Washington Center
04:29PM 37.6694 -77.8875 35° Northeast 474 545 20,800 -1,380 Descending Washington Center
04:30PM 37.7775 -77.7989 33° Northeast 469 540 19,100 -2,100 Descending Washington Center
04:31PM 37.8731 -77.7122 36° Northeast 454 522 16,700 2,940 Descending Washington Center
04:32PM 37.9703 -77.6278 34° Northeast 429 494 25,000 -2,400 Climbing Washington Center
04:33PM 38.0739 -77.5436 33° Northeast 417 480 11,900 -7,440 Descending Washington Center
04:34PM 38.1586 -77.4667 36° Northeast 395 455 10,000 -1,260 Descending Washington Center
04:35PM 38.2325 -77.4156 29° Northeast 346 398 9,500 -1,080 Descending Washington Center
04:36PM 38.3081 -77.3725 24° Northeast 305 351 7,900 -1,560 Descending Washington Center
04:37PM 38.3789 -77.3769 357° North 264 304 6,400 -1,500 Descending Washington Center
04:38PM 38.4364 -77.4444 317° Northwest 245 282 4,900 -1,200 Descending Washington Center
04:39PM 38.5047 -77.4700 344° North 251 289 4,000 -600 Descending Washington Center
04:40PM 38.5778 -77.4692 North 251 289 3,800 -600 Descending Washington Center
04:41PM 38.6333 -77.4667 North 263 303 3,000 -480 Descending Potomac TRACON
04:42PM 38.7000 -77.4667 360° North 256 295 3,000  Level Potomac TRACON
04:43PM 38.7833 -77.4667 360° North 249 287 3,000 -240 Level Potomac TRACON
04:44PM 38.8333 -77.4667 360° North 201 231 2,600 -780 Descending Potomac TRACON
04:45PM 38.8833 -77.4667 360° North 169 194 1,500 -900 Descending Potomac TRACON
04:46PM 38.9167 -77.4667 360° North 145 167 800 -780 Descending Potomac TRACON
04:48PM 38.9333 -77.4500 15° North  Level FlightAware Approximate
04:55PM 38.9474 -77.4599 15° North  Level Estimated